Time;durP1;ratioP1;P1;durP2;ratioP2;P2;SDS_P1;SDS_P2;PMS_P1;PMS_P2;Temp;Humidity;BMP_temperature;BMP_pressure;BME280_temperature;BME280_humidity;BME280_pressure;Samples;Min_cycle;Max_cycle;Signal;HPM_P1;HPM_P2
2024/01/06 00:01:13;;;;;;;5.03;2.00;;;;;;;2.07;100.00;97185.97;6098380;19;20009;-72
2024/01/06 00:03:13;;;;;;;3.38;2.25;;;;;;;2.08;100.00;97179.41;6098696;19;20010;-72
2024/01/06 00:05:14;;;;;;;3.90;2.88;;;;;;;2.09;100.00;97183.69;6100862;19;20324;-72
2024/01/06 00:07:14;;;;;;;3.70;2.05;;;;;;;2.04;100.00;97173.84;6100522;19;20042;-71
2024/01/06 00:09:15;;;;;;;5.78;2.10;;;;;;;2.08;100.00;97180.19;6100619;19;20014;-71
2024/01/06 00:11:15;;;;;;;2.90;1.90;;;;;;;2.07;100.00;97177.78;6100780;19;20002;-72
2024/01/06 00:13:15;;;;;;;1.90;1.70;;;;;;;2.01;100.00;97181.94;6098558;19;20003;-72
2024/01/06 00:15:15;;;;;;;3.78;2.33;;;;;;;2.01;100.00;97173.75;6099866;19;20032;-72
2024/01/06 00:17:16;;;;;;;3.60;2.13;;;;;;;2.01;100.00;97176.50;6099915;19;19998;-72
2024/01/06 00:19:17;;;;;;;4.43;2.20;;;;;;;1.94;100.00;97172.44;6100594;19;20463;-72
2024/01/06 00:21:17;;;;;;;7.22;3.40;;;;;;;1.90;100.00;97178.94;6098775;19;20007;-72
2024/01/06 00:23:18;;;;;;;5.68;2.83;;;;;;;1.83;100.00;97176.84;6099348;19;20102;-71
2024/01/06 00:25:18;;;;;;;3.30;2.63;;;;;;;1.72;100.00;97175.78;6099703;19;20020;-71
2024/01/06 00:27:18;;;;;;;7.32;3.33;;;;;;;1.63;100.00;97175.94;6099332;19;20332;-72
2024/01/06 00:29:19;;;;;;;5.00;3.15;;;;;;;1.58;100.00;97186.34;6099367;19;20010;-71
2024/01/06 00:31:19;;;;;;;5.25;2.80;;;;;;;1.52;100.00;97177.63;6100002;19;20015;-72
2024/01/06 00:33:20;;;;;;;4.78;2.90;;;;;;;1.50;100.00;97177.19;6098335;19;20006;-72
2024/01/06 00:35:21;;;;;;;5.03;2.47;;;;;;;1.52;100.00;97174.09;6100035;19;20010;-72
2024/01/06 00:37:21;;;;;;;3.40;2.10;;;;;;;1.48;100.00;97176.72;6098859;19;20415;-72
2024/01/06 00:39:21;;;;;;;3.78;2.22;;;;;;;1.50;100.00;97173.69;6099939;19;20010;-71
2024/01/06 00:41:22;;;;;;;4.47;2.10;;;;;;;1.54;100.00;97169.09;6099205;19;20365;-71
2024/01/06 00:43:22;;;;;;;2.25;1.70;;;;;;;1.59;100.00;97169.63;6099605;19;20007;-71
2024/01/06 00:45:22;;;;;;;3.33;1.70;;;;;;;1.70;100.00;97178.06;6098497;19;20007;-72
2024/01/06 00:47:24;;;;;;;4.05;1.85;;;;;;;1.79;100.00;97178.69;6099447;19;20440;-71
2024/01/06 00:49:24;;;;;;;5.25;1.92;;;;;;;1.89;100.00;97174.63;6102434;19;20463;-72
2024/01/06 00:51:24;;;;;;;3.40;1.65;;;;;;;1.94;100.00;97174.38;6107785;19;20304;-72
2024/01/06 00:53:25;;;;;;;3.05;1.70;;;;;;;1.98;100.00;97177.97;6106017;19;20015;-71
2024/01/06 00:55:25;;;;;;;2.95;1.75;;;;;;;1.98;100.00;97180.69;6107346;19;20603;-72
2024/01/06 00:57:25;;;;;;;2.33;1.75;;;;;;;2.01;100.00;97184.69;6107014;19;20106;-72
2024/01/06 00:59:27;;;;;;;2.00;1.42;;;;;;;2.00;100.00;97172.19;6106626;19;20522;-72
2024/01/06 01:01:27;;;;;;;2.95;1.65;;;;;;;2.00;100.00;97172.97;6106005;19;20455;-72
2024/01/06 01:03:27;;;;;;;2.50;1.42;;;;;;;2.07;100.00;97181.34;6106788;19;20017;-71
2024/01/06 01:05:28;;;;;;;2.10;1.50;;;;;;;2.08;100.00;97168.47;6107034;19;20032;-72
2024/01/06 01:07:28;;;;;;;1.85;1.42;;;;;;;2.09;100.00;97176.31;6106339;19;20006;-72
2024/01/06 01:09:28;;;;;;;4.68;1.65;;;;;;;2.16;100.00;97176.47;6106685;19;20034;-72
2024/01/06 01:11:29;;;;;;;2.67;1.33;;;;;;;2.22;100.00;97180.50;6105219;19;20014;-72
2024/01/06 01:13:29;;;;;;;5.68;1.70;;;;;;;2.23;100.00;97182.09;6104272;19;20006;-72
2024/01/06 01:15:29;;;;;;;3.70;1.58;;;;;;;2.24;100.00;97183.69;6106320;19;19999;-72
2024/01/06 01:17:30;;;;;;;2.67;1.70;;;;;;;2.27;100.00;97181.38;6105705;19;19995;-72
2024/01/06 01:19:30;;;;;;;1.63;1.20;;;;;;;2.26;100.00;97186.06;6106699;19;20010;-72
2024/01/06 01:21:30;;;;;;;2.00;1.48;;;;;;;2.27;100.00;97195.03;6106218;19;20680;-72
2024/01/06 01:23:30;;;;;;;2.30;1.80;;;;;;;2.19;100.00;97200.31;6105493;19;20006;-72
2024/01/06 01:25:31;;;;;;;3.53;1.70;;;;;;;2.05;100.00;97207.34;6106873;19;20017;-72
2024/01/06 01:27:31;;;;;;;3.78;1.60;;;;;;;1.98;100.00;97197.84;6108114;19;20062;-72
2024/01/06 01:29:31;;;;;;;2.80;1.80;;;;;;;1.82;100.00;97197.09;6112754;19;20594;-71
2024/01/06 01:31:32;;;;;;;3.22;1.60;;;;;;;1.79;100.00;97205.16;6111819;19;20014;-72
2024/01/06 01:33:32;;;;;;;3.00;1.90;;;;;;;1.77;100.00;97210.97;6110488;19;20014;-71
2024/01/06 01:35:32;;;;;;;3.70;1.80;;;;;;;1.67;100.00;97214.22;6109439;19;20015;-71
2024/01/06 01:37:32;;;;;;;5.00;1.92;;;;;;;1.58;100.00;97213.59;6111269;19;20463;-71
2024/01/06 01:39:33;;;;;;;3.13;1.80;;;;;;;1.51;100.00;97218.88;6111014;19;20475;-71
2024/01/06 01:41:33;;;;;;;3.70;1.95;;;;;;;1.48;100.00;97220.34;6110548;19;20005;-71
2024/01/06 01:43:34;;;;;;;2.15;1.75;;;;;;;1.54;100.00;97218.16;6109392;19;19999;-71
2024/01/06 01:45:34;;;;;;;3.65;2.10;;;;;;;1.59;100.00;97212.47;6110832;19;20011;-72
2024/01/06 01:47:35;;;;;;;4.60;1.85;;;;;;;1.65;100.00;97228.19;6108039;19;20297;-71
2024/01/06 01:49:35;;;;;;;2.30;1.85;;;;;;;1.59;100.00;97221.44;6111507;19;20018;-71
2024/01/06 01:51:36;;;;;;;3.88;1.77;;;;;;;1.62;100.00;97223.44;6110324;19;20008;-71
2024/01/06 01:53:37;;;;;;;3.85;2.25;;;;;;;1.63;100.00;97221.50;6110157;19;20040;-72
2024/01/06 01:55:37;;;;;;;4.70;1.80;;;;;;;1.63;100.00;97226.97;6110527;19;20010;-72
2024/01/06 01:57:38;;;;;;;2.10;1.63;;;;;;;1.65;100.00;97228.19;6110052;19;20006;-72
2024/01/06 01:59:39;;;;;;;2.58;1.73;;;;;;;1.63;100.00;97221.50;6109586;19;20023;-72
2024/01/06 02:01:40;;;;;;;2.08;1.35;;;;;;;1.67;100.00;97225.13;6110632;19;20013;-72
2024/01/06 02:03:41;;;;;;;2.45;1.70;;;;;;;1.67;100.00;97222.41;6109029;19;20002;-72
2024/01/06 02:05:41;;;;;;;6.63;2.70;;;;;;;1.65;100.00;97224.66;6111234;19;20347;-72
2024/01/06 02:07:42;;;;;;;3.53;1.98;;;;;;;1.66;100.00;97218.91;6109793;19;20062;-72
2024/01/06 02:09:42;;;;;;;4.22;1.77;;;;;;;1.62;100.00;97226.16;6111715;19;20007;-72
2024/01/06 02:11:42;;;;;;;4.07;1.80;;;;;;;1.55;100.00;97222.47;6110488;19;19999;-72
2024/01/06 02:13:43;;;;;;;2.85;1.90;;;;;;;1.51;100.00;97222.38;6109893;19;20010;-71
2024/01/06 02:15:43;;;;;;;2.75;1.90;;;;;;;1.48;100.00;97225.00;6109982;19;20002;-71
2024/01/06 02:17:44;;;;;;;4.47;1.92;;;;;;;1.42;100.00;97232.66;6110549;19;20081;-71
2024/01/06 02:19:44;;;;;;;2.47;1.77;;;;;;;1.36;100.00;97225.88;6110169;19;20010;-71
2024/01/06 02:21:49;;;;;;;4.32;2.03;;;;;;;1.38;100.00;97227.09;6110495;19;20010;-71
2024/01/06 02:23:49;;;;;;;4.25;2.00;;;;;;;1.39;100.00;97227.88;6109206;19;20019;-71
2024/01/06 02:25:49;;;;;;;3.17;1.70;;;;;;;1.43;100.00;97230.72;6110842;19;20010;-72
2024/01/06 02:27:50;;;;;;;2.85;1.75;;;;;;;1.45;100.00;97231.16;6108346;19;20082;-71
2024/01/06 02:29:50;;;;;;;3.38;2.00;;;;;;;1.44;100.00;97241.28;6109767;19;20003;-71
2024/01/06 02:31:50;;;;;;;2.67;2.05;;;;;;;1.45;100.00;97240.13;6110296;19;20010;-71
2024/01/06 02:33:51;;;;;;;3.22;1.73;;;;;;;1.47;100.00;97237.03;6109264;19;20010;-72
2024/01/06 02:35:51;;;;;;;3.50;2.13;;;;;;;1.46;100.00;97233.53;6109563;19;20023;-72
2024/01/06 02:37:51;;;;;;;3.90;2.30;;;;;;;1.50;100.00;97245.34;6108484;19;20323;-72
2024/01/06 02:39:53;;;;;;;4.97;1.95;;;;;;;1.51;100.00;97246.13;6108264;19;20007;-72
2024/01/06 02:41:53;;;;;;;3.60;1.90;;;;;;;1.63;100.00;97244.13;6109221;19;20019;-72
2024/01/06 02:43:56;;;;;;;2.20;1.80;;;;;;;1.68;100.00;97243.06;6109091;19;20011;-72
2024/01/06 02:45:56;;;;;;;2.83;2.13;;;;;;;1.77;100.00;97251.09;6110803;19;20478;-72
2024/01/06 02:47:56;;;;;;;4.03;1.85;;;;;;;1.85;100.00;97255.59;6107607;19;20070;-72
2024/01/06 02:49:57;;;;;;;2.28;1.70;;;;;;;1.88;100.00;97257.59;6109729;19;20074;-72
2024/01/06 02:51:57;;;;;;;3.00;1.60;;;;;;;1.84;100.00;97252.06;6110569;19;20495;-72
2024/01/06 02:53:57;;;;;;;5.65;1.83;;;;;;;1.84;100.00;97254.00;6108229;19;20018;-72
2024/01/06 02:55:57;;;;;;;3.17;2.00;;;;;;;1.81;100.00;97257.41;6109086;19;20014;-71
2024/01/06 02:57:58;;;;;;;2.50;1.90;;;;;;;1.85;100.00;97261.84;6109800;19;20340;-71
2024/01/06 02:59:58;;;;;;;4.88;1.73;;;;;;;1.89;100.00;97256.47;6110161;19;20014;-71
2024/01/06 03:01:58;;;;;;;5.70;2.55;;;;;;;1.96;100.00;97259.38;6109255;19;20358;-71
2024/01/06 03:03:59;;;;;;;4.47;2.78;;;;;;;1.97;100.00;97260.94;6107929;19;20487;-71
2024/01/06 03:05:59;;;;;;;6.75;4.03;;;;;;;1.95;100.00;97263.25;6110566;19;20029;-71
2024/01/06 03:08:00;;;;;;;6.68;5.07;;;;;;;1.92;100.00;97272.16;6109038;19;20010;-71
2024/01/06 03:10:00;;;;;;;6.32;4.18;;;;;;;1.86;100.00;97259.91;6108201;19;20025;-71
2024/01/06 03:12:00;;;;;;;9.52;5.80;;;;;;;1.80;100.00;97264.81;6109884;19;20007;-71
2024/01/06 03:14:01;;;;;;;10.13;6.03;;;;;;;1.81;100.00;97257.41;6105950;19;20919;-71
2024/01/06 03:16:05;;;;;;;9.05;4.85;;;;;;;1.80;100.00;97255.84;6108711;19;20455;-72
2024/01/06 03:18:05;;;;;;;12.10;5.85;;;;;;;1.80;100.00;97266.75;6107590;19;20538;-72
2024/01/06 03:20:07;;;;;;;8.90;5.10;;;;;;;1.75;100.00;97264.28;6110192;19;20039;-71
2024/01/06 03:22:07;;;;;;;7.37;3.60;;;;;;;1.69;100.00;97261.81;6108944;19;20019;-71
2024/01/06 03:24:09;;;;;;;5.00;2.78;;;;;;;1.67;100.00;97261.38;6107178;19;20082;-71
2024/01/06 03:26:09;;;;;;;3.08;2.25;;;;;;;1.68;100.00;97265.69;6109037;19;20323;-72
2024/01/06 03:28:09;;;;;;;3.45;2.03;;;;;;;1.68;100.00;97275.78;6108137;19;20017;-72
2024/01/06 03:30:10;;;;;;;6.35;2.10;;;;;;;1.69;100.00;97258.28;6109452;19;20010;-72
2024/01/06 03:32:10;;;;;;;5.47;2.30;;;;;;;1.73;100.00;97266.56;6109380;19;20034;-72
2024/01/06 03:34:11;;;;;;;3.78;2.00;;;;;;;1.75;100.00;97267.81;6108704;19;20807;-72
2024/01/06 03:36:12;;;;;;;3.55;2.13;;;;;;;1.80;100.00;97269.47;6108838;19;20006;-72
2024/01/06 03:38:13;;;;;;;5.63;2.30;;;;;;;1.85;100.00;97267.28;6107947;19;20589;-72
2024/01/06 03:40:13;;;;;;;3.78;2.03;;;;;;;1.89;100.00;97265.44;6109440;19;20009;-71
2024/01/06 03:42:14;;;;;;;4.82;2.20;;;;;;;1.96;100.00;97273.81;6109105;19;20088;-71
2024/01/06 03:44:14;;;;;;;3.10;2.50;;;;;;;2.01;100.00;97280.16;6107978;19;20388;-72
2024/01/06 03:46:15;;;;;;;6.75;2.42;;;;;;;2.03;100.00;97273.19;6109075;19;20017;-71
2024/01/06 03:48:15;;;;;;;3.13;1.70;;;;;;;2.04;100.00;97272.06;6098834;19;20349;-72
2024/01/06 03:50:15;;;;;;;3.90;2.10;;;;;;;2.08;100.00;97283.06;6105850;19;20406;-72
2024/01/06 03:52:16;;;;;;;4.57;2.22;;;;;;;2.04;100.00;97277.50;6108701;19;20066;-72
2024/01/06 03:54:16;;;;;;;3.35;1.90;;;;;;;2.03;100.00;97275.13;6106188;19;20362;-72
2024/01/06 03:56:16;;;;;;;4.10;1.70;;;;;;;2.02;100.00;97285.25;6107955;19;20003;-72
2024/01/06 03:58:17;;;;;;;3.20;1.63;;;;;;;2.01;100.00;97280.94;6107724;19;20075;-72
2024/01/06 04:00:17;;;;;;;4.63;2.00;;;;;;;2.03;100.00;97281.38;6108491;19;20005;-72
2024/01/06 04:02:18;;;;;;;4.68;2.10;;;;;;;2.09;100.00;97279.19;6108494;19;20005;-71
2024/01/06 04:04:18;;;;;;;3.38;1.77;;;;;;;2.11;100.00;97285.88;6105741;19;20616;-71
2024/01/06 04:06:18;;;;;;;4.97;2.28;;;;;;;2.11;100.00;97279.63;6108841;19;20070;-71
2024/01/06 04:08:19;;;;;;;3.95;2.00;;;;;;;2.16;100.00;97285.63;6105987;19;20327;-71
2024/01/06 04:10:19;;;;;;;2.22;1.60;;;;;;;2.17;100.00;97281.75;6107928;19;20020;-72
2024/01/06 04:12:19;;;;;;;5.85;2.00;;;;;;;2.22;100.00;97283.41;6108268;19;20010;-72
2024/01/06 04:14:20;;;;;;;4.90;2.20;;;;;;;2.22;100.00;97294.31;6107752;19;20003;-72
2024/01/06 04:16:20;;;;;;;4.43;2.10;;;;;;;2.19;100.00;97279.44;6106871;19;20125;-71
2024/01/06 04:18:20;;;;;;;3.22;2.33;;;;;;;2.16;100.00;97291.09;6107641;19;20033;-71
2024/01/06 04:20:21;;;;;;;3.65;1.88;;;;;;;2.16;100.00;97293.03;6108574;19;20522;-71
2024/01/06 04:22:22;;;;;;;4.53;2.25;;;;;;;2.11;100.00;97298.72;6106746;19;19998;-71
2024/01/06 04:24:22;;;;;;;4.55;2.63;;;;;;;2.05;100.00;97294.66;6106147;19;20001;-72
2024/01/06 04:26:22;;;;;;;5.20;2.30;;;;;;;2.04;100.00;97293.88;6107049;19;20021;-72
2024/01/06 04:28:22;;;;;;;4.68;2.45;;;;;;;1.98;100.00;97303.44;6107711;19;19999;-71
2024/01/06 04:30:24;;;;;;;3.40;2.53;;;;;;;1.95;100.00;97299.50;6104795;19;20451;-72
2024/01/06 04:32:25;;;;;;;4.03;2.15;;;;;;;1.95;100.00;97301.44;6106880;19;20385;-72
2024/01/06 04:34:25;;;;;;;3.97;2.25;;;;;;;1.97;100.00;97301.88;6107780;19;20014;-71
2024/01/06 04:36:25;;;;;;;4.35;1.98;;;;;;;1.96;100.00;97303.03;6106876;19;20015;-72
2024/01/06 04:38:26;;;;;;;4.55;2.20;;;;;;;1.94;100.00;97302.59;6105480;19;20007;-72
2024/01/06 04:40:26;;;;;;;3.78;2.08;;;;;;;1.94;100.00;97305.31;6108059;19;20416;-72
2024/01/06 04:42:26;;;;;;;3.78;2.03;;;;;;;1.94;100.00;97313.50;6106867;19;20007;-72
2024/01/06 04:44:27;;;;;;;2.70;1.90;;;;;;;1.93;100.00;97304.53;6104598;19;20007;-72
2024/01/06 04:46:27;;;;;;;3.55;1.85;;;;;;;1.91;100.00;97295.91;6106717;19;20017;-72
2024/01/06 04:48:27;;;;;;;4.72;2.47;;;;;;;1.97;100.00;97310.06;6100585;19;20002;-71
2024/01/06 04:50:28;;;;;;;2.95;1.92;;;;;;;2.00;100.00;97303.13;6094499;19;20010;-72
2024/01/06 04:52:29;;;;;;;7.75;2.10;;;;;;;2.04;100.00;97299.34;6097820;19;20010;-71
2024/01/06 04:54:30;;;;;;;3.30;2.23;;;;;;;2.13;100.00;97307.34;6099211;19;20321;-72
2024/01/06 04:56:30;;;;;;;3.10;1.80;;;;;;;2.14;100.00;97306.19;6098830;19;20018;-71
2024/01/06 04:58:30;;;;;;;4.85;2.00;;;;;;;2.16;100.00;97298.47;6099401;19;20035;-72
2024/01/06 05:00:30;;;;;;;2.25;1.85;;;;;;;2.17;100.00;97306.31;6098657;19;20014;-72
2024/01/06 05:02:31;;;;;;;2.90;1.83;;;;;;;2.18;100.00;97302.44;6101292;19;20014;-71
2024/01/06 05:04:32;;;;;;;4.57;2.30;;;;;;;2.19;100.00;97306.75;6104047;19;20014;-72
2024/01/06 05:06:33;;;;;;;6.75;2.70;;;;;;;2.19;100.00;97312.19;6104501;19;20522;-72
2024/01/06 05:08:33;;;;;;;4.10;2.42;;;;;;;2.19;100.00;97306.75;6104591;19;20030;-71
2024/01/06 05:10:33;;;;;;;4.40;2.03;;;;;;;2.18;100.00;97318.81;6104966;19;20293;-71
2024/01/06 05:12:33;;;;;;;5.22;2.20;;;;;;;2.19;100.00;97312.19;6103112;19;20006;-72
2024/01/06 05:14:34;;;;;;;6.50;2.08;;;;;;;2.21;100.00;97314.56;6105125;19;20010;-72
2024/01/06 05:16:34;;;;;;;3.83;2.40;;;;;;;2.22;100.00;97308.75;6101669;19;20008;-72
2024/01/06 05:18:35;;;;;;;3.47;2.38;;;;;;;2.24;100.00;97306.50;6104226;19;20007;-72
2024/01/06 05:20:35;;;;;;;2.67;1.95;;;;;;;2.26;100.00;97314.31;6104760;19;20017;-71
2024/01/06 05:22:35;;;;;;;8.05;2.47;;;;;;;2.28;100.00;97312.03;6104293;19;20020;-72
2024/01/06 05:24:36;;;;;;;5.55;2.83;;;;;;;2.29;100.00;97310.09;6105183;19;20027;-71
2024/01/06 05:26:36;;;;;;;4.45;2.75;;;;;;;2.28;100.00;97308.50;6105432;19;20022;-71
2024/01/06 05:28:36;;;;;;;4.80;2.85;;;;;;;2.25;100.00;97312.75;6105372;19;20106;-72
2024/01/06 05:30:36;;;;;;;5.22;3.00;;;;;;;2.23;100.00;97312.28;6104032;19;20045;-72
2024/01/06 05:32:38;;;;;;;6.82;2.53;;;;;;;2.19;100.00;97312.19;6104646;19;20007;-72
2024/01/06 05:34:38;;;;;;;5.82;3.22;;;;;;;2.17;100.00;97316.44;6104418;19;20344;-72
2024/01/06 05:36:38;;;;;;;4.38;2.90;;;;;;;2.10;100.00;97314.31;6104928;19;20015;-71
2024/01/06 05:38:39;;;;;;;8.73;3.90;;;;;;;2.06;100.00;97315.34;6104643;19;20029;-71
2024/01/06 05:40:39;;;;;;;3.83;2.97;;;;;;;1.94;100.00;97311.56;6104808;19;20021;-72
2024/01/06 05:42:40;;;;;;;4.05;3.05;;;;;;;1.87;100.00;97316.81;6103246;19;20011;-71
2024/01/06 05:44:41;;;;;;;5.93;2.72;;;;;;;1.77;100.00;97314.59;6104707;19;20007;-71
2024/01/06 05:46:41;;;;;;;6.35;2.92;;;;;;;1.72;100.00;97317.56;6105065;19;20011;-71
2024/01/06 05:48:42;;;;;;;3.63;2.80;;;;;;;1.64;100.00;97316.59;6104874;19;20007;-72
2024/01/06 05:50:42;;;;;;;5.22;2.42;;;;;;;1.61;100.00;97319.22;6111591;19;20010;-71
2024/01/06 05:52:43;;;;;;;3.88;2.20;;;;;;;1.61;100.00;97328.19;6112001;19;20017;-71
2024/01/06 05:54:43;;;;;;;5.22;2.40;;;;;;;1.56;100.00;97328.44;6112807;19;20014;-71
2024/01/06 05:56:43;;;;;;;5.57;2.40;;;;;;;1.49;100.00;97328.25;6112625;19;20017;-71
2024/01/06 05:58:44;;;;;;;9.60;2.40;;;;;;;1.42;100.00;97328.06;6110996;19;20010;-71
2024/01/06 06:00:46;;;;;;;4.15;1.90;;;;;;;1.34;100.00;97328.97;6111852;19;20011;-72
2024/01/06 06:02:46;;;;;;;4.85;2.30;;;;;;;1.32;100.00;97325.78;6110031;19;20523;-71
2024/01/06 06:04:46;;;;;;;3.13;1.63;;;;;;;1.33;100.00;97324.69;6111339;19;20015;-72
2024/01/06 06:06:46;;;;;;;3.78;2.10;;;;;;;1.33;100.00;97339.09;6112245;19;20250;-72
2024/01/06 06:08:48;;;;;;;4.38;2.00;;;;;;;1.28;100.00;97344.78;6111824;19;20559;-71
2024/01/06 06:11:00;;;;;;;5.38;2.10;;;;;;;1.25;100.00;97340.03;6111104;19;20010;-72
2024/01/06 06:13:01;;;;;;;8.02;2.83;;;;;;;1.23;100.00;97338.75;6110062;19;20018;-71
2024/01/06 06:15:03;;;;;;;3.30;2.45;;;;;;;1.25;100.00;97342.75;6112047;19;20002;-72
2024/01/06 06:17:03;;;;;;;;;;;;;;;1.22;100.00;97353.53;6111932;19;20702;-72
2024/01/06 06:19:04;;;;;;;5.20;3.45;;;;;;;1.18;100.00;97355.38;6112020;19;19918;-71
2024/01/06 06:21:06;;;;;;;8.73;3.53;;;;;;;1.17;100.00;97359.22;6110532;19;20048;-71
2024/01/06 06:23:06;;;;;;;4.85;2.65;;;;;;;1.14;100.00;97360.69;6108963;19;20002;-72
2024/01/06 06:25:08;;;;;;;4.50;3.22;;;;;;;1.08;100.00;97362.09;6111770;19;20009;-71
2024/01/06 06:27:08;;;;;;;4.80;2.67;;;;;;;1.04;100.00;97363.88;6111396;19;20463;-72
2024/01/06 06:29:08;;;;;;;8.77;2.90;;;;;;;0.99;100.00;97362.19;6111658;19;20022;-72
2024/01/06 06:31:09;;;;;;;4.55;2.90;;;;;;;1.06;100.00;97367.06;6110131;19;20432;-72
2024/01/06 06:33:09;;;;;;;5.10;3.03;;;;;;;1.06;100.00;97365.13;6108545;19;20007;-72
2024/01/06 06:35:09;;;;;;;6.30;3.00;;;;;;;1.08;100.00;97368.31;6110230;19;20007;-71
2024/01/06 06:37:10;;;;;;;6.75;3.33;;;;;;;1.09;100.00;97369.91;6110292;19;20594;-72
2024/01/06 06:39:10;;;;;;;7.63;3.78;;;;;;;1.06;100.00;97373.28;6110553;19;20010;-72
2024/01/06 06:41:10;;;;;;;8.70;4.20;;;;;;;1.04;100.00;97382.97;6111247;19;20439;-72
2024/01/06 06:43:11;;;;;;;8.98;5.55;;;;;;;1.01;100.00;97386.38;6108571;19;20014;-72
2024/01/06 06:45:11;;;;;;;10.25;4.93;;;;;;;0.91;100.00;97401.25;6111549;19;20015;-72
2024/01/06 06:47:11;;;;;;;7.38;4.03;;;;;;;0.89;100.00;97395.34;6110324;19;20036;-72
2024/01/06 06:49:12;;;;;;;14.80;5.22;;;;;;;0.81;100.00;97401.69;6110683;19;20485;-72
2024/01/06 06:51:12;;;;;;;13.82;4.97;;;;;;;0.78;100.00;97408.63;6109587;19;20015;-72
2024/01/06 06:53:13;;;;;;;8.88;4.40;;;;;;;0.73;100.00;97406.09;6110100;19;20448;-72
2024/01/06 06:55:13;;;;;;;10.38;4.57;;;;;;;0.76;100.00;97413.59;6110028;19;20029;-72
2024/01/06 06:57:14;;;;;;;9.02;4.47;;;;;;;0.79;100.00;97423.03;6110036;19;20006;-72
2024/01/06 06:59:15;;;;;;;7.18;4.38;;;;;;;0.83;100.00;97421.22;6110835;19;20027;-71
2024/01/06 07:01:15;;;;;;;7.50;4.50;;;;;;;0.81;100.00;97434.34;6109998;19;20270;-71
2024/01/06 07:03:16;;;;;;;8.20;4.57;;;;;;;0.85;100.00;97440.72;6108271;19;20455;-71
2024/01/06 07:05:17;;;;;;;9.38;4.55;;;;;;;0.84;100.00;97436.41;6110843;19;20023;-72
2024/01/06 07:07:17;;;;;;;8.15;4.05;;;;;;;0.82;100.00;97447.63;6109848;19;20082;-71
2024/01/06 07:09:17;;;;;;;8.50;4.43;;;;;;;0.86;100.00;97445.03;6109932;19;20007;-72
2024/01/06 07:11:18;;;;;;;8.40;4.35;;;;;;;0.86;100.00;97453.22;6109918;19;20058;-72
2024/01/06 07:13:18;;;;;;;6.72;4.15;;;;;;;0.83;100.00;97454.69;6108365;19;20006;-72
2024/01/06 07:15:19;;;;;;;9.80;3.75;;;;;;;0.90;100.00;97447.88;6109893;19;20041;-72
2024/01/06 07:17:19;;;;;;;5.35;3.20;;;;;;;0.93;100.00;97458.91;6108959;19;20023;-72
2024/01/06 07:19:20;;;;;;;7.60;3.38;;;;;;;0.92;100.00;97468.19;6110261;19;20030;-72
2024/01/06 07:21:20;;;;;;;6.85;3.25;;;;;;;0.92;100.00;97470.13;6109571;19;20011;-71
2024/01/06 07:23:20;;;;;;;9.35;3.25;;;;;;;0.93;100.00;97467.06;6107924;19;20010;-71
2024/01/06 07:25:20;;;;;;;9.10;2.75;;;;;;;0.95;100.00;97489.31;6108939;19;20472;-72
2024/01/06 07:27:21;;;;;;;7.10;3.58;;;;;;;0.97;100.00;97486.22;6110237;19;20010;-72
2024/01/06 07:29:21;;;;;;;7.05;2.72;;;;;;;0.94;100.00;97479.53;6109360;19;20461;-72
2024/01/06 07:31:21;;;;;;;3.88;2.80;;;;;;;0.96;100.00;97487.38;6109175;19;20010;-71
2024/01/06 07:33:22;;;;;;;7.13;3.63;;;;;;;0.94;100.00;97493.16;6108512;19;20009;-71
2024/01/06 07:35:22;;;;;;;4.28;2.78;;;;;;;0.92;100.00;97484.53;6109225;19;20014;-71
2024/01/06 07:37:22;;;;;;;5.50;3.13;;;;;;;0.93;100.00;97480.69;6109432;19;20038;-72
2024/01/06 07:39:24;;;;;;;4.05;2.90;;;;;;;0.97;100.00;97488.97;6110181;19;20006;-71
2024/01/06 07:41:24;;;;;;;5.25;2.95;;;;;;;0.98;100.00;97487.81;6109262;19;20003;-72
2024/01/06 07:43:24;;;;;;;5.07;2.72;;;;;;;0.95;100.00;97493.94;6107898;19;20308;-72
2024/01/06 07:45:24;;;;;;;3.88;2.60;;;;;;;0.92;100.00;97494.66;6109524;19;20457;-71
2024/01/06 07:47:25;;;;;;;6.32;3.28;;;;;;;0.95;100.00;97505.63;6108873;19;20554;-72
2024/01/06 07:49:25;;;;;;;5.82;3.25;;;;;;;0.96;100.00;97501.00;6109054;19;20010;-72
2024/01/06 07:51:25;;;;;;;3.85;2.70;;;;;;;0.95;100.00;97492.03;6109333;19;20041;-71
2024/01/06 07:53:26;;;;;;;8.35;3.58;;;;;;;0.97;100.00;97497.13;6107373;19;20011;-71
2024/01/06 07:55:28;;;;;;;8.30;3.72;;;;;;;1.00;100.00;97507.38;6108540;19;20011;-71
2024/01/06 07:57:28;;;;;;;7.18;4.03;;;;;;;1.04;100.00;97508.25;6108077;19;20043;-72
2024/01/06 07:59:29;;;;;;;7.53;4.35;;;;;;;1.08;100.00;97507.25;6109474;19;20003;-72
2024/01/06 08:01:29;;;;;;;8.85;4.47;;;;;;;1.06;100.00;97501.34;6107162;19;20006;-72
2024/01/06 08:03:30;;;;;;;6.10;3.58;;;;;;;1.10;100.00;97504.19;6106097;19;20023;-72
2024/01/06 08:05:30;;;;;;;8.55;4.25;;;;;;;1.13;100.00;97517.13;6107374;19;20006;-72
2024/01/06 08:07:31;;;;;;;7.38;3.78;;;;;;;1.18;100.00;97516.13;6107028;19;20007;-72
2024/01/06 08:09:31;;;;;;;6.93;3.90;;;;;;;1.26;100.00;97523.38;6107804;19;20490;-72
2024/01/06 08:11:32;;;;;;;6.82;4.03;;;;;;;1.32;100.00;97524.72;6108921;19;20010;-72
2024/01/06 08:13:32;;;;;;;14.60;6.90;;;;;;;1.38;100.00;97529.63;6107213;19;20010;-72
2024/01/06 08:15:32;;;;;;;33.70;11.85;;;;;;;1.44;100.00;97532.91;6107376;19;20003;-71
2024/01/06 08:17:33;;;;;;;21.25;9.25;;;;;;;1.45;100.00;97534.50;6106624;19;20030;-72
2024/01/06 08:19:33;;;;;;;11.38;6.65;;;;;;;1.47;100.00;97537.69;6110027;19;20007;-72
2024/01/06 08:21:34;;;;;;;11.10;6.53;;;;;;;1.51;100.00;97537.81;6107806;19;20002;-71
2024/01/06 08:23:34;;;;;;;13.35;6.63;;;;;;;1.51;100.00;97537.81;6107659;19;20367;-72
2024/01/06 08:25:35;;;;;;;9.10;5.95;;;;;;;1.55;100.00;97541.44;6106862;19;20007;-72
2024/01/06 08:27:35;;;;;;;8.27;5.03;;;;;;;1.58;100.00;97533.38;6107466;19;20463;-72
2024/01/06 08:29:35;;;;;;;12.25;6.32;;;;;;;1.64;100.00;97528.47;6106924;19;20014;-72
2024/01/06 08:31:35;;;;;;;13.75;5.45;;;;;;;1.71;100.00;97530.63;6108246;19;20009;-71
2024/01/06 08:33:36;;;;;;;12.55;5.38;;;;;;;1.78;100.00;97537.09;6107493;19;20007;-72
2024/01/06 08:35:40;;;;;;;17.45;5.35;;;;;;;1.85;100.00;97537.31;6107187;19;20579;-71
2024/01/06 08:37:40;;;;;;;9.32;4.85;;;;;;;1.93;100.00;97530.13;6110489;19;20080;-72
2024/01/06 08:39:41;;;;;;;5.47;3.47;;;;;;;1.96;100.00;97532.97;6113809;19;20007;-72
2024/01/06 08:41:41;;;;;;;4.78;3.28;;;;;;;2.03;100.00;97543.31;6114126;19;20007;-72
2024/01/06 08:43:42;;;;;;;9.20;4.22;;;;;;;2.03;100.00;97539.78;6112087;19;20222;-72
2024/01/06 08:45:42;;;;;;;5.47;3.25;;;;;;;2.07;100.00;97546.94;6113008;19;20734;-72
2024/01/06 08:47:42;;;;;;;5.93;3.33;;;;;;;2.09;100.00;97547.38;6112587;19;20462;-72
2024/01/06 08:49:43;;;;;;;4.68;3.10;;;;;;;2.10;100.00;97557.16;6102272;19;20459;-72
2024/01/06 08:51:43;;;;;;;3.22;2.58;;;;;;;2.16;100.00;97555.00;6113265;19;20010;-71
2024/01/06 08:53:44;;;;;;;5.50;3.40;;;;;;;2.18;100.00;97561.69;6112458;19;20007;-72
2024/01/06 08:55:44;;;;;;;5.13;3.80;;;;;;;2.22;100.00;97561.78;6112417;19;20014;-72
2024/01/06 08:57:44;;;;;;;4.63;3.33;;;;;;;2.23;100.00;97556.00;6111852;19;19998;-72
2024/01/06 08:59:45;;;;;;;8.73;3.75;;;;;;;2.24;100.00;97562.25;6110513;19;20737;-72
2024/01/06 09:01:45;;;;;;;6.75;3.80;;;;;;;2.27;100.00;97574.41;6112072;19;20401;-71
2024/01/06 09:03:46;;;;;;;6.30;3.88;;;;;;;2.28;100.00;97571.31;6107713;19;20017;-72
2024/01/06 09:05:46;;;;;;;5.35;3.22;;;;;;;2.32;100.00;97582.34;6110731;19;20402;-72
2024/01/06 09:07:49;;;;;;;5.07;3.78;;;;;;;2.37;100.00;97599.28;6111455;19;20035;-72
2024/01/06 09:09:51;;;;;;;8.82;5.88;;;;;;;2.35;100.00;97587.91;6112681;19;20359;-72
2024/01/06 09:11:52;;;;;;;13.90;10.02;;;;;;;2.36;100.00;97596.91;6112361;19;20017;-71
2024/01/06 09:13:52;;;;;;;15.15;10.13;;;;;;;2.34;100.00;97602.69;6110710;19;20191;-72
2024/01/06 09:15:53;;;;;;;11.32;8.25;;;;;;;2.37;100.00;97606.66;6111570;19;20846;-72
2024/01/06 09:17:53;;;;;;;17.63;10.80;;;;;;;2.38;100.00;97594.59;6110592;19;20062;-72
2024/01/06 09:19:54;;;;;;;30.45;17.13;;;;;;;2.43;100.00;97602.56;6112198;19;20007;-72
2024/01/06 09:21:54;;;;;;;33.70;15.32;;;;;;;2.44;100.00;97596.75;6113289;19;20471;-71
2024/01/06 09:23:54;;;;;;;23.17;12.82;;;;;;;2.44;100.00;97602.22;6109977;19;20011;-71
2024/01/06 09:25:55;;;;;;;10.73;6.82;;;;;;;2.44;100.00;97593.22;6112669;19;20015;-72